Time;durP1;ratioP1;P1;durP2;ratioP2;P2;SDS_P1;SDS_P2;PMS_P1;PMS_P2;Temp;Humidity;BMP_temperature;BMP_pressure;BME280_temperature;BME280_humidity;BME280_pressure;Samples;Min_cycle;Max_cycle;Signal;HPM_P1;HPM_P2
2022/05/27 00:02:00;;;;;;;18.90;8.68;;;;;;;11.77;100.00;155480.41;5007771;28;20047;-79
2022/05/27 00:04:26;;;;;;;17.90;8.15;;;;;;;11.79;100.00;155486.84;5015514;28;20521;-78
2022/05/27 00:06:52;;;;;;;14.77;7.65;;;;;;;11.83;100.00;155495.84;5030345;28;20091;-78
2022/05/27 00:09:17;;;;;;;16.58;7.90;;;;;;;11.91;100.00;155516.44;5041517;28;20099;-78
2022/05/27 00:11:43;;;;;;;20.95;7.45;;;;;;;11.96;100.00;155529.28;5002243;28;20041;-77
2022/05/27 00:14:09;;;;;;;18.95;7.63;;;;;;;11.84;100.00;155499.66;5037325;28;20510;-78
2022/05/27 00:16:34;;;;;;;18.27;7.85;;;;;;;11.74;100.00;155474.00;5033229;28;20036;-77
2022/05/27 00:19:00;;;;;;;15.55;7.35;;;;;;;11.81;100.00;155490.66;5049614;28;20033;-77
2022/05/27 00:21:27;;;;;;;12.73;7.45;;;;;;;11.81;100.00;155492.00;5021968;28;20036;-80
2022/05/27 00:23:52;;;;;;;21.20;7.95;;;;;;;11.75;100.00;155476.53;5002771;28;20163;-78
2022/05/27 00:26:18;;;;;;;14.88;7.28;;;;;;;11.78;100.00;155483.00;5036497;28;20494;-77
2022/05/27 00:28:43;;;;;;;19.25;6.28;;;;;;;11.73;100.00;155470.16;5014030;28;20411;-76
2022/05/27 00:31:09;;;;;;;17.88;7.15;;;;;;;11.74;100.00;155472.72;5021333;28;20393;-76
2022/05/27 00:33:38;;;;;;;19.70;7.32;;;;;;;11.80;100.00;155489.41;5031158;28;20044;-76
2022/05/27 00:36:09;;;;;;;19.92;7.65;;;;;;;11.83;100.00;155495.84;5039527;28;20025;-77
2022/05/27 00:38:36;;;;;;;18.50;7.55;;;;;;;11.86;100.00;155503.53;5017680;28;20044;-76
2022/05/27 00:41:02;;;;;;;17.50;8.05;;;;;;;11.91;100.00;155515.16;5000512;28;20025;-78
2022/05/27 00:43:27;;;;;;;15.77;7.40;;;;;;;11.84;100.00;155499.66;5040079;28;20518;-77
2022/05/27 00:46:05;;;;;;;17.40;7.30;;;;;;;11.83;100.00;155497.13;5018327;28;20036;-77
2022/05/27 00:48:36;;;;;;;14.68;7.07;;;;;;;11.81;100.00;155490.66;4995579;28;20025;-77
2022/05/27 00:51:13;;;;;;;18.40;7.13;;;;;;;11.86;100.00;155503.53;5045215;28;20049;-77
2022/05/27 00:53:43;;;;;;;14.90;7.70;;;;;;;11.82;100.00;155494.53;5028841;28;20434;-77
2022/05/27 00:56:13;;;;;;;16.63;6.65;;;;;;;11.94;100.00;155522.81;5017327;28;20043;-77
2022/05/27 00:58:50;;;;;;;13.48;7.05;;;;;;;11.94;100.00;155524.16;5037892;28;20506;-78
2022/05/27 01:01:16;;;;;;;23.25;7.32;;;;;;;11.99;100.00;155535.69;5033333;28;20029;-76
2022/05/27 01:03:43;;;;;;;17.88;7.60;;;;;;;11.92;100.00;155517.69;5017487;28;20039;-77
2022/05/27 01:06:09;;;;;;;22.92;7.25;;;;;;;12.00;100.00;155539.53;5033607;28;20044;-76
2022/05/27 01:08:36;;;;;;;19.52;8.18;;;;;;;12.05;100.00;155551.06;5015703;28;20104;-77
2022/05/27 01:11:40;;;;;;;17.60;6.80;;;;;;;12.07;100.00;155556.22;5004591;28;20407;-77
2022/05/27 01:14:24;;;;;;;18.85;7.05;;;;;;;12.02;100.00;155544.69;5013501;28;20048;-76
2022/05/27 01:16:56;;;;;;;22.88;7.35;;;;;;;12.11;100.00;155566.53;5028350;28;20033;-76
2022/05/27 01:23:20;;;;;;;21.52;6.40;;;;;;;12.13;100.00;155571.66;5038377;28;20075;-77
2022/05/27 01:26:07;;;;;;;18.27;6.38;;;;;;;12.19;100.00;155585.78;5028003;28;20041;-78
2022/05/27 01:28:36;;;;;;;18.75;6.00;;;;;;;12.15;100.00;155576.78;5001584;28;20037;-78
2022/05/27 01:31:40;;;;;;;23.15;6.38;;;;;;;12.21;100.00;155590.91;5037157;28;20034;-77
2022/05/27 01:34:25;;;;;;;16.13;4.88;;;;;;;12.17;100.00;155581.91;5017381;28;20127;-78
2022/05/27 01:37:18;;;;;;;17.25;5.18;;;;;;;12.14;100.00;155572.94;5047117;28;20025;-78
2022/05/27 01:39:51;;;;;;;19.50;4.85;;;;;;;12.16;100.00;155578.06;5026080;28;20025;-78
2022/05/27 01:42:38;;;;;;;13.80;4.63;;;;;;;12.15;100.00;155575.47;5033968;28;20606;-78
2022/05/27 01:45:17;;;;;;;17.67;4.50;;;;;;;12.07;100.00;155556.22;5036298;28;20587;-77
2022/05/27 01:48:02;;;;;;;19.15;4.55;;;;;;;12.04;100.00;155548.53;5026028;28;20033;-77
2022/05/27 01:50:37;;;;;;;19.23;4.32;;;;;;;11.97;100.00;155530.56;5026070;28;20043;-77
2022/05/27 01:53:10;;;;;;;19.17;3.95;;;;;;;11.89;100.00;155511.25;5021974;28;20029;-77
2022/05/27 01:55:43;;;;;;;19.00;3.47;;;;;;;11.86;100.00;155504.78;5040834;28;20410;-77
2022/05/27 01:58:30;;;;;;;18.27;3.53;;;;;;;11.87;100.00;155506.13;5011866;28;20033;-77
2022/05/27 02:00:56;;;;;;;24.02;3.88;;;;;;;11.82;100.00;155493.25;5032356;28;20048;-77
2022/05/27 02:03:33;;;;;;;17.98;3.67;;;;;;;11.78;100.00;155483.00;5016338;28;20134;-77
2022/05/27 02:06:25;;;;;;;22.05;3.60;;;;;;;11.63;100.00;155447.03;5013647;28;20091;-76
2022/05/27 02:09:26;;;;;;;21.17;2.80;;;;;;;11.57;100.00;155431.63;5029809;28;20128;-79
2022/05/27 02:11:58;;;;;;;21.65;3.42;;;;;;;11.47;100.00;155405.94;5010994;28;20052;-76
2022/05/27 02:15:11;;;;;;;22.15;3.05;;;;;;;11.40;100.00;155389.28;4999523;28;20760;-77
2022/05/27 02:17:44;;;;;;;15.35;3.10;;;;;;;11.24;100.00;155349.47;5029695;28;20111;-77
2022/05/27 02:20:15;;;;;;;25.67;3.67;;;;;;;11.27;100.00;155357.19;5030178;28;20135;-79
2022/05/27 02:22:50;;;;;;;22.90;2.97;;;;;;;11.27;100.00;155357.19;5024875;28;20086;-77
2022/05/27 02:25:23;;;;;;;24.08;3.50;;;;;;;11.31;100.00;155366.16;5038626;28;20395;-77
2022/05/27 02:28:22;;;;;;;17.85;2.85;;;;;;;11.30;100.00;155363.56;5023512;28;20033;-77
2022/05/27 02:30:53;;;;;;;19.25;3.30;;;;;;;11.25;100.00;155352.06;5046710;28;20047;-76
2022/05/27 02:36:14;;;;;;;;;;;;;;;10.96;100.00;155278.88;5011376;28;20040;-77
2022/05/27 02:38:40;;;;;;;21.40;3.20;;;;;;;10.77;100.00;155230.13;5018177;28;20530;-80
2022/05/27 02:41:20;;;;;;;31.45;3.70;;;;;;;10.67;100.00;155205.75;5036634;28;20059;-78
2022/05/27 02:43:51;;;;;;;20.98;3.17;;;;;;;10.54;100.00;155172.41;5012299;28;20424;-76
2022/05/27 02:46:25;;;;;;;19.52;3.47;;;;;;;10.54;100.00;155172.41;5027232;28;20120;-78
2022/05/27 02:49:25;;;;;;;17.42;3.42;;;;;;;10.41;100.00;155140.34;5028543;28;20047;-78
2022/05/27 02:52:32;;;;;;;18.33;3.40;;;;;;;10.39;100.00;155135.19;5003618;28;20059;-77
2022/05/27 02:55:17;;;;;;;16.52;3.28;;;;;;;10.28;100.00;155108.19;5007083;28;20041;-78
2022/05/27 02:57:56;;;;;;;20.10;3.00;;;;;;;10.28;100.00;155109.53;5040684;28;20021;-77
2022/05/27 03:00:26;;;;;;;18.88;3.08;;;;;;;10.30;100.00;155113.34;5030424;28;20057;-78
2022/05/27 03:02:53;;;;;;;22.30;3.35;;;;;;;10.17;100.00;155081.31;5030523;28;20577;-77
2022/05/27 03:05:22;;;;;;;19.95;3.22;;;;;;;10.19;100.00;155085.09;5019978;28;20032;-78
2022/05/27 03:07:56;;;;;;;18.65;3.17;;;;;;;10.19;100.00;155085.09;5017717;28;20399;-78
2022/05/27 03:10:29;;;;;;;22.98;3.58;;;;;;;10.14;100.00;155074.84;5013993;28;20518;-77
2022/05/27 03:13:12;;;;;;;21.48;3.58;;;;;;;10.02;100.00;155044.09;5018149;28;20037;-78
2022/05/27 03:16:07;;;;;;;18.95;3.20;;;;;;;10.11;100.00;155065.88;5033049;28;20063;-81
2022/05/27 03:18:50;;;;;;;26.23;3.50;;;;;;;10.08;100.00;155059.47;5042657;28;20119;-77
2022/05/27 03:21:28;;;;;;;20.70;4.10;;;;;;;10.15;100.00;155076.13;4995205;28;20025;-77
2022/05/27 03:24:13;;;;;;;24.95;4.25;;;;;;;10.27;100.00;155105.66;5027048;28;20053;-77
2022/05/27 03:26:57;;;;;;;24.48;3.17;;;;;;;10.21;100.00;155091.56;5023161;28;20044;-78
2022/05/27 03:29:33;;;;;;;18.02;3.22;;;;;;;10.19;100.00;155085.09;5044551;28;20035;-77
2022/05/27 03:32:13;;;;;;;15.05;3.03;;;;;;;10.20;100.00;155087.69;5018001;28;20044;-76
2022/05/27 03:34:46;;;;;;;18.92;3.38;;;;;;;10.22;100.00;155092.81;5030033;28;20035;-77
2022/05/27 03:37:34;;;;;;;21.98;3.80;;;;;;;10.31;100.00;155115.97;5060015;28;20025;-78
2022/05/27 03:40:06;;;;;;;27.42;3.17;;;;;;;10.42;100.00;155144.19;5068631;28;20067;-77
2022/05/27 03:42:35;;;;;;;20.92;3.47;;;;;;;10.49;100.00;155160.84;5044562;28;20100;-79
2022/05/27 03:45:06;;;;;;;22.95;3.42;;;;;;;10.45;100.00;155150.59;5031318;28;20100;-78
2022/05/27 03:47:33;;;;;;;17.55;2.88;;;;;;;10.50;100.00;155164.69;5040186;28;20244;-77
2022/05/27 03:49:59;;;;;;;24.85;3.28;;;;;;;10.48;100.00;155159.56;5066614;28;20550;-78
2022/05/27 03:52:33;;;;;;;24.00;3.15;;;;;;;10.54;100.00;155172.41;5044130;28;20488;-78
2022/05/27 03:54:59;;;;;;;23.00;2.95;;;;;;;10.64;100.00;155199.38;5019130;28;20472;-76
2022/05/27 03:57:25;;;;;;;18.00;3.08;;;;;;;10.58;100.00;155182.66;5014722;28;20127;-77
2022/05/27 03:59:51;;;;;;;19.08;3.33;;;;;;;10.55;100.00;155174.94;5024909;28;20091;-78
2022/05/27 04:02:16;;;;;;;17.50;3.22;;;;;;;10.57;100.00;155180.06;5030245;28;20088;-79
2022/05/27 04:04:42;;;;;;;17.52;3.28;;;;;;;10.65;100.00;155201.91;5038726;28;20476;-77
2022/05/27 04:07:08;;;;;;;19.98;2.88;;;;;;;10.65;100.00;155201.91;4997782;28;20024;-78
2022/05/27 04:09:33;;;;;;;19.10;3.30;;;;;;;10.62;100.00;155192.91;4993842;28;20459;-76
2022/05/27 04:11:59;;;;;;;24.50;2.97;;;;;;;10.51;100.00;155166.00;5027952;28;20033;-77
2022/05/27 04:14:25;;;;;;;12.88;2.33;;;;;;;10.61;100.00;155191.66;5024328;28;20472;-78
2022/05/27 04:16:51;;;;;;;18.38;2.83;;;;;;;10.67;100.00;155205.75;5020256;28;20029;-77
2022/05/27 04:19:17;;;;;;;23.08;3.30;;;;;;;10.54;100.00;155173.69;5024433;28;20540;-78
2022/05/27 04:21:43;;;;;;;17.05;2.83;;;;;;;10.48;100.00;155158.31;5026769;28;20031;-78
2022/05/27 04:24:10;;;;;;;18.10;2.47;;;;;;;10.44;100.00;155148.03;5033290;28;20036;-77
2022/05/27 04:26:36;;;;;;;13.15;2.65;;;;;;;10.44;100.00;155148.03;5021014;28;20041;-79
2022/05/27 04:29:02;;;;;;;16.92;2.53;;;;;;;10.36;100.00;155128.81;5008639;28;20044;-78
2022/05/27 04:31:28;;;;;;;24.42;2.83;;;;;;;10.39;100.00;155136.47;5027930;28;20106;-79
2022/05/27 04:33:55;;;;;;;18.67;2.80;;;;;;;10.28;100.00;155108.19;5000073;28;20041;-77
2022/05/27 04:36:20;;;;;;;11.57;3.20;;;;;;;10.21;100.00;155091.56;5034564;28;20033;-78
2022/05/27 04:38:46;;;;;;;13.93;2.42;;;;;;;10.26;100.00;155104.34;5012016;28;20402;-75
2022/05/27 04:41:12;;;;;;;17.48;2.95;;;;;;;10.20;100.00;155088.97;5038263;28;20060;-78
2022/05/27 04:43:37;;;;;;;15.75;2.70;;;;;;;10.20;100.00;155088.97;5007228;28;20347;-78
2022/05/27 04:46:04;;;;;;;18.27;2.47;;;;;;;10.32;100.00;155118.50;5001725;28;20065;-77
2022/05/27 04:48:29;;;;;;;13.20;2.67;;;;;;;10.42;100.00;155144.19;5028553;28;20531;-79
2022/05/27 04:50:55;;;;;;;18.13;2.40;;;;;;;10.43;100.00;155145.47;5036365;28;20037;-78
2022/05/27 04:53:21;;;;;;;18.58;2.45;;;;;;;10.51;100.00;155166.00;5005707;28;20043;-76
2022/05/27 04:55:46;;;;;;;15.30;2.88;;;;;;;10.64;100.00;155198.03;5003505;28;20762;-76
2022/05/27 04:58:13;;;;;;;15.82;2.42;;;;;;;10.55;100.00;155176.28;5014984;28;20084;-77
2022/05/27 05:00:44;;;;;;;17.67;2.72;;;;;;;10.68;100.00;155208.31;5022964;28;20036;-77
2022/05/27 05:03:11;;;;;;;14.30;2.75;;;;;;;10.65;100.00;155200.63;5036123;28;20653;-77
2022/05/27 05:05:38;;;;;;;16.92;2.60;;;;;;;10.66;100.00;155204.50;5000835;28;20053;-77
2022/05/27 05:08:08;;;;;;;14.60;2.13;;;;;;;10.66;100.00;155203.19;5017729;28;20048;-76
2022/05/27 05:10:34;;;;;;;13.77;2.25;;;;;;;10.68;100.00;155209.63;5023049;28;20471;-77
2022/05/27 05:13:01;;;;;;;12.27;2.83;;;;;;;10.90;100.00;155264.75;5043662;28;20112;-77
2022/05/27 05:15:28;;;;;;;16.13;2.28;;;;;;;10.91;100.00;155266.06;5025321;28;20037;-77
2022/05/27 05:17:54;;;;;;;16.33;2.53;;;;;;;10.87;100.00;155255.81;5022783;28;20036;-76
2022/05/27 05:20:25;;;;;;;12.45;2.70;;;;;;;11.08;100.00;155308.44;5044448;28;20036;-78
2022/05/27 05:22:51;;;;;;;13.82;2.15;;;;;;;11.12;100.00;155318.69;5031020;28;20116;-78
2022/05/27 05:25:17;;;;;;;16.88;2.00;;;;;;;11.15;100.00;155325.09;5012488;28;20044;-76
2022/05/27 05:27:43;;;;;;;12.75;2.38;;;;;;;11.13;100.00;155321.22;5023739;28;20056;-77
2022/05/27 05:30:12;;;;;;;9.48;2.03;;;;;;;11.15;100.00;155326.41;5045297;28;20033;-76
2022/05/27 05:32:39;;;;;;;12.13;2.85;;;;;;;11.22;100.00;155343.06;5025247;28;20029;-78
2022/05/27 05:35:05;;;;;;;12.40;2.28;;;;;;;11.26;100.00;155354.63;5013993;28;20042;-78
2022/05/27 05:37:31;;;;;;;13.43;2.25;;;;;;;11.30;100.00;155364.91;5011429;28;20040;-78
2022/05/27 05:39:56;;;;;;;11.38;1.73;;;;;;;11.32;100.00;155367.44;5011097;28;20025;-76
2022/05/27 05:42:22;;;;;;;19.15;2.35;;;;;;;11.39;100.00;155386.69;5013181;28;20072;-77
2022/05/27 05:44:48;;;;;;;10.50;2.00;;;;;;;11.48;100.00;155408.53;5034825;28;20030;-76
2022/05/27 05:47:14;;;;;;;12.65;2.38;;;;;;;11.54;100.00;155422.66;5033841;28;20081;-77
2022/05/27 05:49:39;;;;;;;12.80;1.95;;;;;;;11.68;100.00;155459.88;5032633;28;20041;-76
2022/05/27 05:52:05;;;;;;;12.55;2.17;;;;;;;11.69;100.00;155461.16;5002129;28;20188;-78
2022/05/27 05:54:31;;;;;;;20.50;2.58;;;;;;;11.77;100.00;155480.41;5050010;28;20034;-77
2022/05/27 05:57:00;;;;;;;12.70;2.63;;;;;;;11.84;100.00;155498.38;5032809;28;20040;-76
2022/05/27 05:59:30;;;;;;;10.50;2.15;;;;;;;11.86;100.00;155504.78;5023116;28;20037;-78
2022/05/27 06:01:56;;;;;;;12.73;2.25;;;;;;;12.09;100.00;155561.34;5029079;28;20498;-79
2022/05/27 06:04:22;;;;;;;12.10;1.92;;;;;;;12.15;100.00;155575.47;5026056;28;20068;-77
2022/05/27 06:06:48;;;;;;;13.80;2.08;;;;;;;12.21;99.18;155590.91;5036218;28;20075;-77
2022/05/27 06:09:13;;;;;;;12.45;2.50;;;;;;;12.24;100.00;155598.59;5013138;28;20063;-78
2022/05/27 06:11:39;;;;;;;12.00;2.22;;;;;;;12.30;100.00;155614.03;5040282;28;20112;-79
2022/05/27 06:14:06;;;;;;;13.57;2.28;;;;;;;12.46;100.00;155653.84;5038999;28;20042;-78
2022/05/27 06:16:32;;;;;;;15.25;2.05;;;;;;;12.65;100.00;155701.34;5030309;28;20063;-76
2022/05/27 06:18:58;;;;;;;14.27;2.20;;;;;;;12.50;98.12;155662.81;5013307;28;20071;-77
2022/05/27 06:21:25;;;;;;;14.65;1.92;;;;;;;12.68;100.00;155707.75;5041867;28;20056;-76
2022/05/27 06:23:51;;;;;;;12.77;2.00;;;;;;;12.58;100.00;155684.69;5033208;28;20045;-78
2022/05/27 06:26:16;;;;;;;12.60;2.20;;;;;;;12.45;100.00;155652.56;5002955;28;20094;-77
2022/05/27 06:34:25;;;;;;;11.02;2.00;;;;;;;13.17;98.96;155832.41;5027949;28;20052;-78
2022/05/27 06:37:13;;;;;;;19.60;2.20;;;;;;;13.05;100.00;155801.56;5037559;28;20033;-78
2022/05/27 06:39:40;;;;;;;19.17;2.53;;;;;;;13.07;99.29;155805.41;5031416;28;20036;-76
2022/05/27 06:42:10;;;;;;;11.98;2.20;;;;;;;13.31;94.68;155865.88;5050743;28;20067;-76
2022/05/27 06:44:39;;;;;;;15.98;2.55;;;;;;;13.43;100.00;155898.00;5020319;28;20025;-79
2022/05/27 06:47:05;;;;;;;15.68;2.60;;;;;;;13.27;95.53;155856.81;5045579;28;20037;-78
2022/05/27 06:49:32;;;;;;;15.85;2.20;;;;;;;13.35;92.72;155877.41;5029188;28;20059;-78
2022/05/27 06:51:57;;;;;;;14.00;1.92;;;;;;;13.48;92.19;155908.28;5052558;28;20040;-79
2022/05/27 06:54:24;;;;;;;11.10;2.10;;;;;;;13.78;87.64;155985.41;5040819;28;20467;-78
2022/05/27 06:56:52;;;;;;;15.35;2.13;;;;;;;13.86;84.86;156003.41;5035014;28;20031;-79
2022/05/27 06:59:19;;;;;;;15.38;2.33;;;;;;;14.08;90.50;156058.69;5014478;28;20024;-76
2022/05/27 07:01:45;;;;;;;18.38;2.20;;;;;;;14.13;86.02;156072.84;5012573;28;20033;-77
2022/05/27 07:04:12;;;;;;;12.13;2.17;;;;;;;14.06;96.79;156054.81;5034871;28;20147;-75
2022/05/27 07:06:41;;;;;;;12.57;2.20;;;;;;;13.87;83.08;156007.25;5044136;28;20688;-77
2022/05/27 07:09:08;;;;;;;9.75;2.17;;;;;;;13.57;84.34;155931.44;5045290;28;20061;-77
2022/05/27 07:11:35;;;;;;;12.70;2.25;;;;;;;13.55;90.10;155926.28;5038567;28;20152;-78
2022/05/27 07:14:01;;;;;;;15.68;2.63;;;;;;;13.55;92.82;155926.28;5048192;28;20079;-76
2022/05/27 07:16:27;;;;;;;14.13;2.30;;;;;;;13.22;85.57;155843.97;5015153;28;20040;-76
2022/05/27 07:18:54;;;;;;;14.13;1.95;;;;;;;12.81;94.54;155742.47;4995584;28;20044;-79
2022/05/27 07:21:20;;;;;;;11.27;2.15;;;;;;;12.88;88.19;155759.16;5026485;28;20570;-77
2022/05/27 07:23:46;;;;;;;15.32;2.13;;;;;;;13.08;85.89;155809.28;5031319;28;20052;-77
2022/05/27 07:26:12;;;;;;;10.27;2.05;;;;;;;13.27;87.11;155855.56;5038109;28;20037;-75
2022/05/27 07:28:38;;;;;;;9.40;1.80;;;;;;;12.95;84.11;155777.16;5030794;28;20033;-77
2022/05/27 07:31:03;;;;;;;13.82;1.90;;;;;;;13.15;85.17;155827.28;5044041;28;20574;-75
2022/05/27 07:33:29;;;;;;;10.57;2.05;;;;;;;13.55;79.42;155927.56;5022969;28;20128;-78
2022/05/27 07:35:56;;;;;;;15.18;2.40;;;;;;;13.97;80.05;156031.69;5024033;28;20064;-78
2022/05/27 07:38:22;;;;;;;15.07;2.38;;;;;;;14.37;83.13;156131.97;5022718;28;20546;-78
2022/05/27 07:40:48;;;;;;;11.90;2.47;;;;;;;14.59;83.05;156188.59;5031021;28;20029;-76
2022/05/27 07:43:13;;;;;;;9.35;2.08;;;;;;;14.87;77.43;156258.06;5020968;28;20037;-76
2022/05/27 07:45:41;;;;;;;9.88;2.50;;;;;;;15.10;83.29;156315.94;5013624;28;20055;-77
2022/05/27 07:48:08;;;;;;;12.15;1.98;;;;;;;15.18;72.29;156335.25;5029964;28;20056;-76
2022/05/27 07:50:34;;;;;;;15.27;2.42;;;;;;;15.30;70.89;156364.88;5039831;28;20036;-76
2022/05/27 07:53:00;;;;;;;12.38;2.08;;;;;;;15.22;75.35;156344.25;5015484;28;20044;-77
2022/05/27 07:55:26;;;;;;;8.50;2.22;;;;;;;15.10;74.46;156315.94;5044021;28;20041;-77
2022/05/27 07:57:52;;;;;;;8.80;2.25;;;;;;;15.16;74.72;156331.41;5025038;28;20033;-76
2022/05/27 08:00:22;;;;;;;14.23;2.25;;;;;;;14.56;75.75;156180.88;5036766;28;20035;-77
2022/05/27 08:02:48;;;;;;;11.43;1.98;;;;;;;14.17;79.67;156081.84;5042606;28;20515;-76
2022/05/27 08:05:19;;;;;;;13.77;2.22;;;;;;;14.29;79.77;156111.41;4999669;28;20258;-77
2022/05/27 08:07:46;;;;;;;12.77;2.30;;;;;;;14.71;74.77;156218.22;5042878;28;20029;-74
2022/05/27 08:10:15;;;;;;;16.85;2.75;;;;;;;15.19;76.10;156337.84;5031172;28;20029;-77
2022/05/27 08:12:42;;;;;;;12.30;2.35;;;;;;;15.52;72.11;156420.16;5049689;28;20041;-75
2022/05/27 08:15:09;;;;;;;7.78;1.90;;;;;;;15.64;77.00;156449.78;5037203;28;20151;-76
2022/05/27 08:17:35;;;;;;;10.02;1.90;;;;;;;15.84;67.62;156500.00;5028137;28;20029;-74
2022/05/27 08:20:03;;;;;;;13.50;2.40;;;;;;;16.20;69.03;156591.44;5015113;28;20021;-76
2022/05/27 08:22:29;;;;;;;12.30;2.15;;;;;;;15.83;71.43;156498.72;5046293;28;20040;-76
2022/05/27 08:24:54;;;;;;;12.48;2.17;;;;;;;15.01;75.67;156291.50;5039720;28;20041;-77
2022/05/27 08:27:20;;;;;;;11.93;2.00;;;;;;;14.40;75.74;156139.69;5043256;28;20036;-78
2022/05/27 08:29:45;;;;;;;14.18;2.28;;;;;;;14.31;82.90;156116.53;5025944;28;20499;-78
2022/05/27 08:32:11;;;;;;;10.93;2.35;;;;;;;14.76;78.36;156231.03;5016148;28;20037;-77
2022/05/27 08:40:34;;;;;;;12.57;2.15;;;;;;;16.09;72.62;156563.09;5049431;28;20487;-76
2022/05/27 08:43:26;;;;;;;26.52;2.25;;;;;;;15.78;68.87;156485.84;5035537;28;20042;-76
2022/05/27 08:46:08;;;;;;;15.25;1.90;;;;;;;15.68;66.83;156460.09;5012170;28;20087;-75
2022/05/27 08:48:38;;;;;;;11.50;2.28;;;;;;;15.61;60.72;156443.34;5041218;28;20113;-76
2022/05/27 08:51:20;;;;;;;11.68;2.00;;;;;;;15.76;64.52;156482.03;5048959;28;20040;-75
2022/05/27 08:53:52;;;;;;;11.82;2.22;;;;;;;16.21;64.26;156593.97;5017834;28;20495;-77
2022/05/27 08:59:31;;;;;;;8.27;1.98;;;;;;;16.70;60.99;156716.28;5017533;28;20183;-77
2022/05/27 09:02:05;;;;;;;7.97;2.08;;;;;;;16.62;55.63;156695.72;5014546;28;20036;-76
2022/05/27 09:04:43;;;;;;;11.25;2.08;;;;;;;16.67;57.55;156709.88;5039297;28;20053;-77
2022/05/27 09:07:30;;;;;;;12.25;2.13;;;;;;;16.90;65.68;156766.59;5032039;28;20075;-77
2022/05/27 09:09:56;;;;;;;12.05;2.28;;;;;;;17.07;62.92;156810.38;5018493;28;20072;-79
2022/05/27 09:12:29;;;;;;;18.88;2.35;;;;;;;17.06;64.35;156807.78;5035284;28;20038;-78
2022/05/27 09:15:02;;;;;;;19.33;2.42;;;;;;;16.21;63.72;156593.97;5029280;28;20033;-78
2022/05/27 09:17:42;;;;;;;14.05;2.28;;;;;;;15.41;68.13;156393.19;5029081;28;20029;-78
2022/05/27 09:20:19;;;;;;;14.18;2.50;;;;;;;15.10;65.03;156315.94;5035757;28;20490;-81
2022/05/27 09:23:07;;;;;;;14.52;2.35;;;;;;;15.36;65.74;156381.56;5032047;28;20040;-76
2022/05/27 09:25:51;;;;;;;15.75;3.17;;;;;;;15.26;66.26;156355.84;5037406;28;20052;-76
2022/05/27 09:28:49;;;;;;;13.07;1.98;;;;;;;14.97;63.11;156282.50;5033301;28;20697;-77
2022/05/27 09:31:27;;;;;;;12.30;2.03;;;;;;;14.72;66.87;156219.50;5036664;28;20121;-76
2022/05/27 09:33:54;;;;;;;14.48;2.08;;;;;;;14.31;69.77;156117.81;5033586;28;20029;-77
2022/05/27 09:36:28;;;;;;;13.45;1.92;;;;;;;14.66;70.08;156205.34;5032619;28;20120;-77
2022/05/27 09:38:58;;;;;;;20.55;2.13;;;;;;;15.49;70.20;156412.47;5049095;28;20458;-76
2022/05/27 09:41:36;;;;;;;13.63;2.55;;;;;;;16.10;69.16;156565.66;5016035;28;20037;-76
2022/05/27 09:44:12;;;;;;;13.35;2.25;;;;;;;16.16;61.11;156581.09;5012870;28;20128;-77
2022/05/27 09:46:38;;;;;;;13.73;2.60;;;;;;;16.42;65.66;156646.75;5026786;28;20120;-76
2022/05/27 09:49:05;;;;;;;15.13;2.38;;;;;;;16.25;60.34;156604.28;5008697;28;20045;-75
2022/05/27 09:51:32;;;;;;;13.20;2.65;;;;;;;16.21;61.89;156592.72;5042711;28;20028;-76
2022/05/27 09:54:15;;;;;;;18.35;2.80;;;;;;;16.32;58.51;156622.31;5019145;28;20094;-75
2022/05/27 09:56:54;;;;;;;14.57;2.42;;;;;;;16.76;65.56;156731.75;5006256;28;20840;-77
2022/05/27 09:59:36;;;;;;;18.15;3.20;;;;;;;17.16;64.99;156830.97;5012296;28;20517;-75
2022/05/27 10:02:25;;;;;;;12.45;2.35;;;;;;;17.47;61.67;156909.56;4992634;28;20041;-76
2022/05/27 10:05:01;;;;;;;18.25;2.85;;;;;;;17.66;59.58;156957.22;5016957;28;20044;-76
2022/05/27 10:07:48;;;;;;;19.23;2.80;;;;;;;17.65;60.68;156954.63;5001483;28;20029;-79
2022/05/27 10:10:35;;;;;;;13.90;2.50;;;;;;;17.73;63.20;156974.00;5040612;28;20029;-76
2022/05/27 10:13:18;;;;;;;11.35;2.08;;;;;;;17.45;59.87;156904.41;5033492;28;20052;-80
2022/05/27 10:15:44;;;;;;;10.48;1.98;;;;;;;17.08;57.88;156811.66;5023457;28;20126;-77
2022/05/27 10:18:25;;;;;;;12.02;2.03;;;;;;;16.21;62.15;156593.97;5036622;28;20029;-78
2022/05/27 10:21:04;;;;;;;14.68;2.47;;;;;;;16.09;67.59;156564.38;5042314;28;20028;-77
2022/05/27 10:23:41;;;;;;;12.50;2.03;;;;;;;16.00;66.90;156539.94;5025679;28;20044;-79
2022/05/27 10:26:26;;;;;;;13.40;2.17;;;;;;;15.53;72.92;156422.75;5027134;28;20036;-77
2022/05/27 10:28:59;;;;;;;11.77;2.00;;;;;;;15.16;71.65;156330.09;5030580;28;20061;-76
2022/05/27 10:31:25;;;;;;;11.32;2.10;;;;;;;15.19;66.24;156337.84;5012781;28;20749;-77
2022/05/27 10:33:51;;;;;;;8.52;1.88;;;;;;;15.77;65.81;156484.56;5030306;28;20786;-76
2022/05/27 10:36:28;;;;;;;12.25;2.50;;;;;;;16.22;65.96;156596.56;5040724;28;20044;-76
2022/05/27 10:39:11;;;;;;;13.27;2.10;;;;;;;16.78;67.44;156736.88;5037555;28;20040;-75
2022/05/27 10:41:56;;;;;;;;;;;;;;;16.54;62.90;156676.41;5017059;28;20025;-76
2022/05/27 10:44:40;;;;;;;19.10;2.75;;;;;;;16.90;72.30;156767.88;5025338;28;19921;-78
2022/05/27 10:47:16;;;;;;;13.80;2.42;;;;;;;16.95;59.80;156779.44;5042990;28;20033;-78
2022/05/27 10:49:43;;;;;;;8.90;2.00;;;;;;;17.55;64.66;156928.88;5009105;28;20768;-75
2022/05/27 10:52:30;;;;;;;14.57;2.10;;;;;;;17.62;55.49;156948.19;5041701;28;20041;-77
2022/05/27 10:55:40;;;;;;;11.48;2.50;;;;;;;17.06;62.51;156807.78;5022594;28;20742;-77
2022/05/27 11:04:40;;;;;;;18.65;2.70;;;;;;;15.36;67.99;156380.28;5039143;28;20049;-78
2022/05/27 11:07:29;;;;;;;16.10;2.47;;;;;;;14.55;80.77;156177.00;5047566;28;21323;-77
2022/05/27 11:10:18;;;;;;;12.35;2.55;;;;;;;13.62;89.23;155945.56;5027143;28;20633;-83
2022/05/27 11:16:23;;;;;;;17.15;3.00;;;;;;;14.14;93.59;156075.38;5020930;28;20046;-79
2022/05/27 11:19:09;;;;;;;22.08;3.03;;;;;;;14.76;93.71;156231.03;5049670;28;20029;-82
2022/05/27 11:22:17;;;;;;;14.10;2.50;;;;;;;15.21;85.03;156342.97;5001661;28;20037;-79
2022/05/27 11:24:54;;;;;;;17.75;2.83;;;;;;;15.13;81.11;156322.41;5007882;28;20408;-79
2022/05/27 11:27:36;;;;;;;21.10;3.03;;;;;;;15.02;93.66;156294.09;5027478;28;20037;-78
2022/05/27 11:30:07;;;;;;;17.70;3.20;;;;;;;15.14;95.53;156324.97;5017670;28;20040;-79
2022/05/27 11:32:38;;;;;;;19.45;3.30;;;;;;;15.72;97.72;156471.63;5038366;28;20041;-76
2022/05/27 11:35:20;;;;;;;19.17;3.85;;;;;;;15.75;97.94;156479.44;5010946;28;20033;-76
2022/05/27 11:38:04;;;;;;;14.55;3.22;;;;;;;15.31;96.13;156367.41;5029172;28;20668;-76
2022/05/27 11:40:39;;;;;;;17.73;3.05;;;;;;;14.90;91.35;156264.47;5023466;28;20041;-78
2022/05/27 11:43:37;;;;;;;14.55;2.90;;;;;;;14.34;94.24;156125.56;5048626;28;20071;-76
2022/05/27 11:46:08;;;;;;;17.75;2.95;;;;;;;13.89;97.36;156011.13;5031693;28;20040;-78
2022/05/27 11:49:00;;;;;;;17.80;3.60;;;;;;;13.93;92.26;156021.41;5021541;28;20120;-75
2022/05/27 11:51:39;;;;;;;16.97;2.77;;;;;;;15.18;95.79;156336.56;5040585;28;20041;-77
2022/05/27 11:54:26;;;;;;;17.52;2.63;;;;;;;16.02;79.39;156546.34;5049327;28;20277;-76
2022/05/27 11:57:20;;;;;;;18.00;2.97;;;;;;;15.97;77.36;156533.47;5045778;28;20063;-77
2022/05/27 12:00:02;;;;;;;18.42;2.70;;;;;;;15.21;76.76;156342.97;5013557;28;20032;-77
2022/05/27 12:03:07;;;;;;;12.88;2.00;;;;;;;14.58;90.26;156184.78;5039757;28;20042;-77
2022/05/27 12:05:49;;;;;;;15.70;2.40;;;;;;;14.02;93.12;156044.56;5018084;28;20140;-77
2022/05/27 12:08:23;;;;;;;25.75;3.42;;;;;;;13.80;97.08;155989.25;5034170;28;20097;-76
2022/05/27 12:10:54;;;;;;;13.55;2.70;;;;;;;14.06;92.00;156053.56;5038032;28;20040;-76
2022/05/27 12:13:46;;;;;;;17.33;3.10;;;;;;;14.09;95.04;156062.56;5047552;28;20039;-76